sensor_id;sensor_type;location;lat;lon;timestamp;P1;durP1;ratioP1;P2;durP2;ratioP2
12958;SDS011;6544;51.666;6.634;2023-07-24T00:00:39;3.92;;;2.75;;
12958;SDS011;6544;51.666;6.634;2023-07-24T00:03:06;2.97;;;2.42;;
12958;SDS011;6544;51.666;6.634;2023-07-24T00:05:33;3.05;;;2.30;;
12958;SDS011;6544;51.666;6.634;2023-07-24T00:08:00;2.83;;;2.53;;
12958;SDS011;6544;51.666;6.634;2023-07-24T00:10:27;3.58;;;2.50;;
12958;SDS011;6544;51.666;6.634;2023-07-24T00:12:56;4.10;;;2.60;;
12958;SDS011;6544;51.666;6.634;2023-07-24T00:15:23;3.42;;;2.50;;
12958;SDS011;6544;51.666;6.634;2023-07-24T00:17:50;5.18;;;2.70;;
12958;SDS011;6544;51.666;6.634;2023-07-24T00:20:17;3.38;;;2.80;;
12958;SDS011;6544;51.666;6.634;2023-07-24T00:22:44;3.58;;;2.80;;
12958;SDS011;6544;51.666;6.634;2023-07-24T00:25:10;3.63;;;2.60;;
12958;SDS011;6544;51.666;6.634;2023-07-24T00:27:37;5.18;;;2.92;;
12958;SDS011;6544;51.666;6.634;2023-07-24T00:30:06;3.28;;;2.67;;
12958;SDS011;6544;51.666;6.634;2023-07-24T00:32:34;3.65;;;2.60;;
12958;SDS011;6544;51.666;6.634;2023-07-24T00:35:01;3.78;;;2.58;;
12958;SDS011;6544;51.666;6.634;2023-07-24T00:37:28;3.63;;;2.72;;
12958;SDS011;6544;51.666;6.634;2023-07-24T00:39:55;3.92;;;3.00;;
12958;SDS011;6544;51.666;6.634;2023-07-24T00:42:22;3.75;;;2.70;;
12958;SDS011;6544;51.666;6.634;2023-07-24T00:44:49;3.22;;;2.70;;
12958;SDS011;6544;51.666;6.634;2023-07-24T00:47:17;5.28;;;2.92;;
12958;SDS011;6544;51.666;6.634;2023-07-24T00:49:44;10.70;;;3.40;;
12958;SDS011;6544;51.666;6.634;2023-07-24T00:52:12;5.07;;;3.10;;
12958;SDS011;6544;51.666;6.634;2023-07-24T00:54:39;6.63;;;3.30;;
12958;SDS011;6544;51.666;6.634;2023-07-24T00:57:06;4.82;;;3.35;;
12958;SDS011;6544;51.666;6.634;2023-07-24T00:59:34;6.25;;;3.33;;
12958;SDS011;6544;51.666;6.634;2023-07-24T01:02:01;5.60;;;3.47;;
12958;SDS011;6544;51.666;6.634;2023-07-24T01:04:29;4.60;;;3.58;;
12958;SDS011;6544;51.666;6.634;2023-07-24T01:06:56;5.32;;;3.78;;
12958;SDS011;6544;51.666;6.634;2023-07-24T01:09:23;7.50;;;3.95;;
12958;SDS011;6544;51.666;6.634;2023-07-24T01:11:51;5.95;;;3.90;;
12958;SDS011;6544;51.666;6.634;2023-07-24T01:14:25;6.35;;;4.00;;
12958;SDS011;6544;51.666;6.634;2023-07-24T01:16:59;7.32;;;4.57;;
12958;SDS011;6544;51.666;6.634;2023-07-24T01:19:33;7.50;;;4.88;;
12958;SDS011;6544;51.666;6.634;2023-07-24T01:22:08;6.53;;;5.00;;
12958;SDS011;6544;51.666;6.634;2023-07-24T01:24:50;7.15;;;5.25;;
12958;SDS011;6544;51.666;6.634;2023-07-24T01:27:28;6.65;;;5.25;;
12958;SDS011;6544;51.666;6.634;2023-07-24T01:29:55;7.85;;;5.97;;
12958;SDS011;6544;51.666;6.634;2023-07-24T01:32:22;7.03;;;6.30;;
12958;SDS011;6544;51.666;6.634;2023-07-24T01:34:50;7.85;;;6.60;;
12958;SDS011;6544;51.666;6.634;2023-07-24T01:37:18;7.95;;;6.15;;
12958;SDS011;6544;51.666;6.634;2023-07-24T01:39:48;9.25;;;6.57;;
12958;SDS011;6544;51.666;6.634;2023-07-24T01:42:17;10.30;;;7.32;;
12958;SDS011;6544;51.666;6.634;2023-07-24T01:44:46;9.20;;;6.95;;
12958;SDS011;6544;51.666;6.634;2023-07-24T01:47:17;14.65;;;7.22;;
12958;SDS011;6544;51.666;6.634;2023-07-24T01:49:44;8.55;;;7.05;;
12958;SDS011;6544;51.666;6.634;2023-07-24T01:52:11;8.52;;;6.85;;
12958;SDS011;6544;51.666;6.634;2023-07-24T01:54:38;8.18;;;6.90;;
12958;SDS011;6544;51.666;6.634;2023-07-24T01:57:06;10.07;;;6.90;;
12958;SDS011;6544;51.666;6.634;2023-07-24T01:59:32;7.22;;;6.50;;
12958;SDS011;6544;51.666;6.634;2023-07-24T02:02:01;8.35;;;6.72;;
12958;SDS011;6544;51.666;6.634;2023-07-24T02:04:28;7.65;;;6.40;;
12958;SDS011;6544;51.666;6.634;2023-07-24T02:06:54;7.97;;;5.80;;
12958;SDS011;6544;51.666;6.634;2023-07-24T02:09:21;7.63;;;5.50;;
12958;SDS011;6544;51.666;6.634;2023-07-24T02:11:48;7.57;;;5.53;;
12958;SDS011;6544;51.666;6.634;2023-07-24T02:14:17;6.65;;;5.25;;
12958;SDS011;6544;51.666;6.634;2023-07-24T02:16:45;6.55;;;4.85;;
12958;SDS011;6544;51.666;6.634;2023-07-24T02:19:13;5.65;;;4.00;;
12958;SDS011;6544;51.666;6.634;2023-07-24T02:21:40;7.07;;;4.10;;
12958;SDS011;6544;51.666;6.634;2023-07-24T02:24:07;9.57;;;4.68;;
12958;SDS011;6544;51.666;6.634;2023-07-24T02:26:34;6.13;;;4.25;;
12958;SDS011;6544;51.666;6.634;2023-07-24T02:29:01;6.47;;;4.15;;
12958;SDS011;6544;51.666;6.634;2023-07-24T02:31:27;6.00;;;3.97;;
12958;SDS011;6544;51.666;6.634;2023-07-24T02:33:54;5.78;;;4.25;;
12958;SDS011;6544;51.666;6.634;2023-07-24T02:36:23;8.55;;;3.90;;
12958;SDS011;6544;51.666;6.634;2023-07-24T02:38:49;7.18;;;4.30;;
12958;SDS011;6544;51.666;6.634;2023-07-24T02:41:16;4.38;;;3.97;;
12958;SDS011;6544;51.666;6.634;2023-07-24T02:43:43;7.80;;;3.88;;
12958;SDS011;6544;51.666;6.634;2023-07-24T02:46:10;7.80;;;3.92;;
12958;SDS011;6544;51.666;6.634;2023-07-24T02:48:37;5.05;;;4.13;;
12958;SDS011;6544;51.666;6.634;2023-07-24T02:51:04;7.15;;;3.92;;
12958;SDS011;6544;51.666;6.634;2023-07-24T02:53:32;8.57;;;4.25;;
12958;SDS011;6544;51.666;6.634;2023-07-24T02:56:00;8.55;;;4.45;;
12958;SDS011;6544;51.666;6.634;2023-07-24T02:58:27;6.32;;;4.10;;
12958;SDS011;6544;51.666;6.634;2023-07-24T03:00:54;5.20;;;4.15;;
12958;SDS011;6544;51.666;6.634;2023-07-24T03:03:29;6.60;;;4.15;;
12958;SDS011;6544;51.666;6.634;2023-07-24T03:05:56;9.65;;;4.50;;
12958;SDS011;6544;51.666;6.634;2023-07-24T03:08:22;6.93;;;4.68;;
12958;SDS011;6544;51.666;6.634;2023-07-24T03:10:51;7.80;;;4.13;;
12958;SDS011;6544;51.666;6.634;2023-07-24T03:13:18;4.82;;;4.03;;
12958;SDS011;6544;51.666;6.634;2023-07-24T03:15:51;6.15;;;4.55;;
12958;SDS011;6544;51.666;6.634;2023-07-24T03:18:19;6.22;;;4.15;;
12958;SDS011;6544;51.666;6.634;2023-07-24T03:20:46;10.90;;;5.30;;
12958;SDS011;6544;51.666;6.634;2023-07-24T03:23:12;6.40;;;4.10;;
12958;SDS011;6544;51.666;6.634;2023-07-24T03:25:39;5.88;;;4.32;;
12958;SDS011;6544;51.666;6.634;2023-07-24T03:28:08;8.20;;;4.60;;
12958;SDS011;6544;51.666;6.634;2023-07-24T03:30:35;7.55;;;4.50;;
12958;SDS011;6544;51.666;6.634;2023-07-24T03:33:02;9.43;;;4.40;;
12958;SDS011;6544;51.666;6.634;2023-07-24T03:35:31;9.85;;;5.18;;
12958;SDS011;6544;51.666;6.634;2023-07-24T03:37:58;6.43;;;5.20;;
12958;SDS011;6544;51.666;6.634;2023-07-24T03:40:25;9.05;;;5.40;;
12958;SDS011;6544;51.666;6.634;2023-07-24T03:42:52;8.75;;;5.50;;
12958;SDS011;6544;51.666;6.634;2023-07-24T03:45:20;7.28;;;5.57;;
12958;SDS011;6544;51.666;6.634;2023-07-24T03:47:47;6.80;;;5.72;;
12958;SDS011;6544;51.666;6.634;2023-07-24T03:50:14;8.98;;;6.10;;
12958;SDS011;6544;51.666;6.634;2023-07-24T03:52:41;11.23;;;6.68;;
12958;SDS011;6544;51.666;6.634;2023-07-24T03:55:08;12.55;;;6.45;;
12958;SDS011;6544;51.666;6.634;2023-07-24T03:57:35;11.55;;;6.78;;
12958;SDS011;6544;51.666;6.634;2023-07-24T04:00:02;10.32;;;6.70;;
12958;SDS011;6544;51.666;6.634;2023-07-24T04:02:31;12.40;;;6.72;;
12958;SDS011;6544;51.666;6.634;2023-07-24T04:04:58;10.18;;;7.10;;
12958;SDS011;6544;51.666;6.634;2023-07-24T04:07:25;10.55;;;7.20;;
12958;SDS011;6544;51.666;6.634;2023-07-24T04:09:52;12.32;;;7.88;;
12958;SDS011;6544;51.666;6.634;2023-07-24T04:12:19;11.65;;;7.90;;
12958;SDS011;6544;51.666;6.634;2023-07-24T04:14:46;16.85;;;8.15;;
12958;SDS011;6544;51.666;6.634;2023-07-24T04:17:13;11.00;;;7.90;;
12958;SDS011;6544;51.666;6.634;2023-07-24T04:19:42;10.27;;;6.93;;
12958;SDS011;6544;51.666;6.634;2023-07-24T04:22:09;10.43;;;6.30;;
12958;SDS011;6544;51.666;6.634;2023-07-24T04:24:36;8.07;;;6.10;;
12958;SDS011;6544;51.666;6.634;2023-07-24T04:27:03;7.13;;;6.00;;
12958;SDS011;6544;51.666;6.634;2023-07-24T04:29:30;9.57;;;5.82;;
12958;SDS011;6544;51.666;6.634;2023-07-24T04:31:57;8.30;;;5.60;;
12958;SDS011;6544;51.666;6.634;2023-07-24T04:34:24;9.52;;;5.50;;
12958;SDS011;6544;51.666;6.634;2023-07-24T04:36:52;8.70;;;5.78;;
12958;SDS011;6544;51.666;6.634;2023-07-24T04:39:19;12.23;;;6.13;;
12958;SDS011;6544;51.666;6.634;2023-07-24T04:41:45;9.35;;;6.10;;
12958;SDS011;6544;51.666;6.634;2023-07-24T04:44:12;8.50;;;5.65;;
12958;SDS011;6544;51.666;6.634;2023-07-24T04:46:39;7.63;;;5.32;;
12958;SDS011;6544;51.666;6.634;2023-07-24T04:49:06;11.18;;;5.72;;
12958;SDS011;6544;51.666;6.634;2023-07-24T04:51:33;7.85;;;5.40;;
12958;SDS011;6544;51.666;6.634;2023-07-24T04:54:01;8.68;;;5.53;;
12958;SDS011;6544;51.666;6.634;2023-07-24T04:56:28;9.00;;;5.20;;
12958;SDS011;6544;51.666;6.634;2023-07-24T04:58:55;8.40;;;5.38;;
12958;SDS011;6544;51.666;6.634;2023-07-24T05:01:22;6.65;;;5.30;;
12958;SDS011;6544;51.666;6.634;2023-07-24T05:03:48;7.65;;;5.20;;
12958;SDS011;6544;51.666;6.634;2023-07-24T05:06:15;9.13;;;5.13;;
12958;SDS011;6544;51.666;6.634;2023-07-24T05:08:42;8.27;;;5.35;;
12958;SDS011;6544;51.666;6.634;2023-07-24T05:11:10;9.45;;;5.60;;
12958;SDS011;6544;51.666;6.634;2023-07-24T05:13:37;9.77;;;5.57;;
12958;SDS011;6544;51.666;6.634;2023-07-24T05:16:04;7.10;;;5.25;;
12958;SDS011;6544;51.666;6.634;2023-07-24T05:18:31;6.90;;;5.55;;
12958;SDS011;6544;51.666;6.634;2023-07-24T05:20:58;7.97;;;5.53;;
12958;SDS011;6544;51.666;6.634;2023-07-24T05:23:25;9.73;;;6.18;;
12958;SDS011;6544;51.666;6.634;2023-07-24T05:25:56;10.30;;;5.88;;
12958;SDS011;6544;51.666;6.634;2023-07-24T05:28:25;7.55;;;5.65;;
12958;SDS011;6544;51.666;6.634;2023-07-24T05:30:52;10.82;;;5.70;;
12958;SDS011;6544;51.666;6.634;2023-07-24T05:33:19;7.88;;;4.75;;
12958;SDS011;6544;51.666;6.634;2023-07-24T05:35:48;6.20;;;4.70;;
12958;SDS011;6544;51.666;6.634;2023-07-24T05:38:14;4.50;;;3.42;;
12958;SDS011;6544;51.666;6.634;2023-07-24T05:40:41;4.57;;;3.50;;
12958;SDS011;6544;51.666;6.634;2023-07-24T05:43:08;7.22;;;3.30;;
12958;SDS011;6544;51.666;6.634;2023-07-24T05:45:36;5.70;;;3.40;;
12958;SDS011;6544;51.666;6.634;2023-07-24T05:48:03;5.70;;;3.30;;
12958;SDS011;6544;51.666;6.634;2023-07-24T05:50:31;5.93;;;3.50;;
12958;SDS011;6544;51.666;6.634;2023-07-24T05:52:58;3.95;;;3.00;;
12958;SDS011;6544;51.666;6.634;2023-07-24T05:55:25;7.53;;;3.00;;
12958;SDS011;6544;51.666;6.634;2023-07-24T05:57:52;3.72;;;2.70;;
12958;SDS011;6544;51.666;6.634;2023-07-24T06:00:19;5.57;;;3.15;;
12958;SDS011;6544;51.666;6.634;2023-07-24T06:02:47;2.97;;;2.50;;
12958;SDS011;6544;51.666;6.634;2023-07-24T06:05:14;3.15;;;2.65;;
12958;SDS011;6544;51.666;6.634;2023-07-24T06:07:41;4.43;;;2.90;;
12958;SDS011;6544;51.666;6.634;2023-07-24T06:10:08;3.88;;;2.90;;
12958;SDS011;6544;51.666;6.634;2023-07-24T06:12:35;3.97;;;2.70;;
12958;SDS011;6544;51.666;6.634;2023-07-24T06:15:02;5.70;;;3.03;;
12958;SDS011;6544;51.666;6.634;2023-07-24T06:17:30;4.85;;;2.92;;
12958;SDS011;6544;51.666;6.634;2023-07-24T06:19:58;3.33;;;2.90;;
12958;SDS011;6544;51.666;6.634;2023-07-24T06:22:25;3.83;;;3.10;;
12958;SDS011;6544;51.666;6.634;2023-07-24T06:24:52;3.38;;;3.05;;
12958;SDS011;6544;51.666;6.634;2023-07-24T06:27:19;4.00;;;3.25;;
12958;SDS011;6544;51.666;6.634;2023-07-24T06:29:46;3.63;;;3.17;;
12958;SDS011;6544;51.666;6.634;2023-07-24T06:32:13;4.35;;;3.40;;
12958;SDS011;6544;51.666;6.634;2023-07-24T06:34:39;6.22;;;3.17;;
12958;SDS011;6544;51.666;6.634;2023-07-24T06:37:08;5.53;;;4.05;;
12958;SDS011;6544;51.666;6.634;2023-07-24T06:39:35;3.50;;;3.17;;
12958;SDS011;6544;51.666;6.634;2023-07-24T06:42:02;4.95;;;3.33;;
12958;SDS011;6544;51.666;6.634;2023-07-24T06:44:29;4.22;;;3.20;;
12958;SDS011;6544;51.666;6.634;2023-07-24T06:46:56;4.60;;;3.60;;
12958;SDS011;6544;51.666;6.634;2023-07-24T06:49:22;4.35;;;3.30;;
12958;SDS011;6544;51.666;6.634;2023-07-24T06:51:49;4.03;;;3.50;;
12958;SDS011;6544;51.666;6.634;2023-07-24T06:54:18;3.85;;;3.47;;
12958;SDS011;6544;51.666;6.634;2023-07-24T06:56:44;4.47;;;3.38;;
12958;SDS011;6544;51.666;6.634;2023-07-24T06:59:11;7.00;;;3.78;;
12958;SDS011;6544;51.666;6.634;2023-07-24T07:01:38;3.80;;;3.50;;
12958;SDS011;6544;51.666;6.634;2023-07-24T07:04:05;3.80;;;3.50;;
12958;SDS011;6544;51.666;6.634;2023-07-24T07:06:32;4.30;;;3.90;;
12958;SDS011;6544;51.666;6.634;2023-07-24T07:08:59;7.03;;;6.35;;
12958;SDS011;6544;51.666;6.634;2023-07-24T07:11:27;4.57;;;4.10;;
12958;SDS011;6544;51.666;6.634;2023-07-24T07:13:54;4.88;;;4.00;;
12958;SDS011;6544;51.666;6.634;2023-07-24T07:16:21;4.70;;;4.07;;
12958;SDS011;6544;51.666;6.634;2023-07-24T07:18:48;4.22;;;3.83;;
12958;SDS011;6544;51.666;6.634;2023-07-24T07:21:15;5.00;;;3.90;;
12958;SDS011;6544;51.666;6.634;2023-07-24T07:23:41;4.28;;;3.83;;
12958;SDS011;6544;51.666;6.634;2023-07-24T07:26:08;5.05;;;3.95;;
12958;SDS011;6544;51.666;6.634;2023-07-24T07:28:37;5.72;;;3.88;;
12958;SDS011;6544;51.666;6.634;2023-07-24T07:31:04;4.38;;;3.97;;
12958;SDS011;6544;51.666;6.634;2023-07-24T07:33:31;6.32;;;4.22;;
12958;SDS011;6544;51.666;6.634;2023-07-24T07:35:58;4.72;;;4.00;;
12958;SDS011;6544;51.666;6.634;2023-07-24T07:38:25;4.05;;;3.55;;
12958;SDS011;6544;51.666;6.634;2023-07-24T07:40:52;5.53;;;3.90;;
12958;SDS011;6544;51.666;6.634;2023-07-24T07:43:19;4.20;;;3.80;;
12958;SDS011;6544;51.666;6.634;2023-07-24T07:45:47;3.97;;;3.67;;
12958;SDS011;6544;51.666;6.634;2023-07-24T07:48:14;4.03;;;3.72;;
12958;SDS011;6544;51.666;6.634;2023-07-24T07:50:41;4.22;;;3.83;;
12958;SDS011;6544;51.666;6.634;2023-07-24T07:53:08;4.72;;;3.85;;
12958;SDS011;6544;51.666;6.634;2023-07-24T07:55:35;4.22;;;3.80;;
12958;SDS011;6544;51.666;6.634;2023-07-24T07:58:02;4.10;;;3.70;;
12958;SDS011;6544;51.666;6.634;2023-07-24T08:00:29;3.63;;;3.33;;
12958;SDS011;6544;51.666;6.634;2023-07-24T08:02:57;3.80;;;3.40;;
12958;SDS011;6544;51.666;6.634;2023-07-24T08:05:24;4.40;;;3.15;;
12958;SDS011;6544;51.666;6.634;2023-07-24T08:07:51;5.30;;;3.20;;
12958;SDS011;6544;51.666;6.634;2023-07-24T08:10:18;4.63;;;2.92;;
12958;SDS011;6544;51.666;6.634;2023-07-24T08:12:45;3.25;;;2.80;;
12958;SDS011;6544;51.666;6.634;2023-07-24T08:15:12;3.40;;;2.92;;
12958;SDS011;6544;51.666;6.634;2023-07-24T08:17:39;3.55;;;2.70;;
12958;SDS011;6544;51.666;6.634;2023-07-24T08:20:08;3.40;;;3.10;;
12958;SDS011;6544;51.666;6.634;2023-07-24T08:22:35;3.45;;;3.13;;
12958;SDS011;6544;51.666;6.634;2023-07-24T08:25:02;3.47;;;3.17;;
12958;SDS011;6544;51.666;6.634;2023-07-24T08:27:30;3.85;;;3.40;;
12958;SDS011;6544;51.666;6.634;2023-07-24T08:29:57;6.00;;;3.30;;
12958;SDS011;6544;51.666;6.634;2023-07-24T08:32:24;4.15;;;3.13;;
12958;SDS011;6544;51.666;6.634;2023-07-24T08:34:50;3.58;;;3.28;;
12958;SDS011;6544;51.666;6.634;2023-07-24T08:37:19;4.07;;;3.13;;
12958;SDS011;6544;51.666;6.634;2023-07-24T08:39:46;4.88;;;3.30;;
12958;SDS011;6544;51.666;6.634;2023-07-24T08:42:13;5.32;;;3.28;;
12958;SDS011;6544;51.666;6.634;2023-07-24T08:44:40;3.55;;;3.25;;
12958;SDS011;6544;51.666;6.634;2023-07-24T08:47:09;4.35;;;3.22;;
12958;SDS011;6544;51.666;6.634;2023-07-24T08:49:36;3.60;;;3.30;;
12958;SDS011;6544;51.666;6.634;2023-07-24T08:52:05;5.07;;;3.60;;
12958;SDS011;6544;51.666;6.634;2023-07-24T08:54:34;4.00;;;3.63;;
12958;SDS011;6544;51.666;6.634;2023-07-24T08:57:03;4.00;;;3.40;;
12958;SDS011;6544;51.666;6.634;2023-07-24T08:59:32;4.18;;;3.33;;
12958;SDS011;6544;51.666;6.634;2023-07-24T09:01:59;3.70;;;3.40;;
12958;SDS011;6544;51.666;6.634;2023-07-24T09:04:26;5.68;;;3.90;;
12958;SDS011;6544;51.666;6.634;2023-07-24T09:06:55;4.78;;;3.95;;
12958;SDS011;6544;51.666;6.634;2023-07-24T09:09:23;3.78;;;3.40;;
12958;SDS011;6544;51.666;6.634;2023-07-24T09:11:56;5.10;;;3.95;;
12958;SDS011;6544;51.666;6.634;2023-07-24T09:14:24;3.70;;;3.40;;
12958;SDS011;6544;51.666;6.634;2023-07-24T09:17:01;4.88;;;3.55;;
12958;SDS011;6544;51.666;6.634;2023-07-24T09:19:29;3.80;;;3.40;;
12958;SDS011;6544;51.666;6.634;2023-07-24T09:22:06;4.07;;;3.35;;
12958;SDS011;6544;51.666;6.634;2023-07-24T09:24:34;3.80;;;3.40;;
12958;SDS011;6544;51.666;6.634;2023-07-24T09:27:04;4.30;;;3.20;;
12958;SDS011;6544;51.666;6.634;2023-07-24T09:29:32;3.28;;;2.75;;
12958;SDS011;6544;51.666;6.634;2023-07-24T09:31:59;3.45;;;3.00;;
12958;SDS011;6544;51.666;6.634;2023-07-24T09:34:26;3.95;;;3.10;;
12958;SDS011;6544;51.666;6.634;2023-07-24T09:36:53;3.90;;;2.80;;
12958;SDS011;6544;51.666;6.634;2023-07-24T09:39:22;4.88;;;2.67;;
12958;SDS011;6544;51.666;6.634;2023-07-24T09:41:50;3.92;;;2.63;;
12958;SDS011;6544;51.666;6.634;2023-07-24T09:44:19;3.38;;;2.50;;
12958;SDS011;6544;51.666;6.634;2023-07-24T09:46:46;5.07;;;2.70;;
12958;SDS011;6544;51.666;6.634;2023-07-24T09:49:13;3.55;;;2.60;;
12958;SDS011;6544;51.666;6.634;2023-07-24T09:51:40;3.15;;;2.60;;
12958;SDS011;6544;51.666;6.634;2023-07-24T09:54:15;4.13;;;3.10;;
12958;SDS011;6544;51.666;6.634;2023-07-24T09:56:47;3.65;;;2.85;;
12958;SDS011;6544;51.666;6.634;2023-07-24T09:59:16;3.50;;;2.65;;
12958;SDS011;6544;51.666;6.634;2023-07-24T10:01:45;3.47;;;2.83;;
12958;SDS011;6544;51.666;6.634;2023-07-24T10:04:13;4.30;;;3.08;;
12958;SDS011;6544;51.666;6.634;2023-07-24T10:06:41;3.13;;;2.70;;
12958;SDS011;6544;51.666;6.634;2023-07-24T10:09:10;3.20;;;2.80;;
12958;SDS011;6544;51.666;6.634;2023-07-24T10:11:38;3.80;;;2.60;;
12958;SDS011;6544;51.666;6.634;2023-07-24T10:14:06;4.63;;;3.20;;
12958;SDS011;6544;51.666;6.634;2023-07-24T10:16:33;3.28;;;2.97;;
12958;SDS011;6544;51.666;6.634;2023-07-24T10:19:01;3.15;;;2.80;;
12958;SDS011;6544;51.666;6.634;2023-07-24T10:21:44;3.63;;;3.00;;
12958;SDS011;6544;51.666;6.634;2023-07-24T10:24:12;3.75;;;3.40;;
12958;SDS011;6544;51.666;6.634;2023-07-24T10:26:39;5.93;;;3.35;;
12958;SDS011;6544;51.666;6.634;2023-07-24T10:29:06;4.32;;;3.58;;
12958;SDS011;6544;51.666;6.634;2023-07-24T10:31:34;4.57;;;3.47;;
12958;SDS011;6544;51.666;6.634;2023-07-24T10:34:05;3.88;;;3.45;;
12958;SDS011;6544;51.666;6.634;2023-07-24T10:36:33;3.78;;;3.20;;
12958;SDS011;6544;51.666;6.634;2023-07-24T10:39:00;4.80;;;3.55;;
12958;SDS011;6544;51.666;6.634;2023-07-24T10:41:34;4.20;;;3.25;;
12958;SDS011;6544;51.666;6.634;2023-07-24T10:44:01;5.82;;;3.40;;
12958;SDS011;6544;51.666;6.634;2023-07-24T10:46:35;4.43;;;3.35;;
12958;SDS011;6544;51.666;6.634;2023-07-24T10:49:04;4.30;;;3.33;;
12958;SDS011;6544;51.666;6.634;2023-07-24T10:51:32;3.95;;;3.45;;
12958;SDS011;6544;51.666;6.634;2023-07-24T10:54:02;4.18;;;3.60;;
12958;SDS011;6544;51.666;6.634;2023-07-24T10:56:31;3.47;;;3.13;;
12958;SDS011;6544;51.666;6.634;2023-07-24T10:59:01;3.97;;;3.22;;
12958;SDS011;6544;51.666;6.634;2023-07-24T11:01:29;4.88;;;3.38;;
12958;SDS011;6544;51.666;6.634;2023-07-24T11:03:57;5.18;;;3.28;;
12958;SDS011;6544;51.666;6.634;2023-07-24T11:06:26;4.05;;;3.55;;
12958;SDS011;6544;51.666;6.634;2023-07-24T11:08:54;3.85;;;3.33;;
12958;SDS011;6544;51.666;6.634;2023-07-24T11:11:22;3.90;;;3.35;;
12958;SDS011;6544;51.666;6.634;2023-07-24T11:13:53;3.90;;;3.13;;
12958;SDS011;6544;51.666;6.634;2023-07-24T11:16:20;4.75;;;3.22;;
12958;SDS011;6544;51.666;6.634;2023-07-24T11:18:48;4.70;;;3.42;;
12958;SDS011;6544;51.666;6.634;2023-07-24T11:21:17;6.95;;;3.38;;
12958;SDS011;6544;51.666;6.634;2023-07-24T11:23:46;4.47;;;3.40;;
12958;SDS011;6544;51.666;6.634;2023-07-24T11:26:14;6.03;;;3.35;;
12958;SDS011;6544;51.666;6.634;2023-07-24T11:28:41;5.90;;;3.78;;
12958;SDS011;6544;51.666;6.634;2023-07-24T11:31:08;4.53;;;3.30;;
12958;SDS011;6544;51.666;6.634;2023-07-24T11:33:36;4.78;;;3.63;;
12958;SDS011;6544;51.666;6.634;2023-07-24T11:36:04;5.20;;;4.00;;
12958;SDS011;6544;51.666;6.634;2023-07-24T11:38:31;7.20;;;4.25;;
12958;SDS011;6544;51.666;6.634;2023-07-24T11:41:00;7.57;;;4.03;;
12958;SDS011;6544;51.666;6.634;2023-07-24T11:43:26;8.02;;;4.43;;
12958;SDS011;6544;51.666;6.634;2023-07-24T11:45:53;6.75;;;4.13;;
12958;SDS011;6544;51.666;6.634;2023-07-24T11:48:21;7.10;;;4.90;;
12958;SDS011;6544;51.666;6.634;2023-07-24T11:50:50;6.15;;;4.03;;
12958;SDS011;6544;51.666;6.634;2023-07-24T11:53:20;7.07;;;4.65;;
12958;SDS011;6544;51.666;6.634;2023-07-24T11:55:48;6.38;;;4.75;;
12958;SDS011;6544;51.666;6.634;2023-07-24T11:58:17;6.30;;;4.45;;
12958;SDS011;6544;51.666;6.634;2023-07-24T12:00:45;4.78;;;4.32;;
12958;SDS011;6544;51.666;6.634;2023-07-24T12:03:13;7.47;;;4.38;;
12958;SDS011;6544;51.666;6.634;2023-07-24T12:05:40;9.30;;;5.03;;
12958;SDS011;6544;51.666;6.634;2023-07-24T12:08:08;6.45;;;4.85;;
12958;SDS011;6544;51.666;6.634;2023-07-24T12:10:36;5.95;;;4.88;;
12958;SDS011;6544;51.666;6.634;2023-07-24T12:13:04;6.07;;;4.68;;
12958;SDS011;6544;51.666;6.634;2023-07-24T12:15:33;5.30;;;4.80;;
12958;SDS011;6544;51.666;6.634;2023-07-24T12:18:00;8.07;;;5.03;;
12958;SDS011;6544;51.666;6.634;2023-07-24T12:20:27;6.25;;;4.55;;
12958;SDS011;6544;51.666;6.634;2023-07-24T12:22:55;6.65;;;4.68;;
12958;SDS011;6544;51.666;6.634;2023-07-24T12:25:31;5.78;;;4.97;;
12958;SDS011;6544;51.666;6.634;2023-07-24T12:27:58;6.28;;;4.88;;
12958;SDS011;6544;51.666;6.634;2023-07-24T12:30:25;5.88;;;4.60;;
12958;SDS011;6544;51.666;6.634;2023-07-24T12:32:54;5.28;;;4.78;;
12958;SDS011;6544;51.666;6.634;2023-07-24T12:35:20;7.90;;;4.78;;
12958;SDS011;6544;51.666;6.634;2023-07-24T12:37:47;5.18;;;4.68;;
12958;SDS011;6544;51.666;6.634;2023-07-24T12:40:14;5.75;;;4.70;;
12958;SDS011;6544;51.666;6.634;2023-07-24T12:42:41;5.30;;;4.80;;
12958;SDS011;6544;51.666;6.634;2023-07-24T12:45:08;6.32;;;4.72;;
12958;SDS011;6544;51.666;6.634;2023-07-24T12:47:35;5.38;;;4.80;;
12958;SDS011;6544;51.666;6.634;2023-07-24T12:50:04;6.15;;;4.78;;
12958;SDS011;6544;51.666;6.634;2023-07-24T12:52:31;5.75;;;4.70;;
12958;SDS011;6544;51.666;6.634;2023-07-24T12:54:58;5.07;;;4.57;;
12958;SDS011;6544;51.666;6.634;2023-07-24T12:57:25;6.90;;;4.63;;
12958;SDS011;6544;51.666;6.634;2023-07-24T12:59:54;5.32;;;4.45;;
12958;SDS011;6544;51.666;6.634;2023-07-24T13:02:21;5.28;;;4.15;;
12958;SDS011;6544;51.666;6.634;2023-07-24T13:04:48;4.10;;;3.70;;
12958;SDS011;6544;51.666;6.634;2023-07-24T13:07:16;4.75;;;4.07;;
12958;SDS011;6544;51.666;6.634;2023-07-24T13:09:43;5.78;;;3.72;;
12958;SDS011;6544;51.666;6.634;2023-07-24T13:12:10;4.68;;;3.50;;
12958;SDS011;6544;51.666;6.634;2023-07-24T13:14:37;3.88;;;3.33;;
12958;SDS011;6544;51.666;6.634;2023-07-24T13:17:04;8.32;;;3.70;;
12958;SDS011;6544;51.666;6.634;2023-07-24T13:19:32;4.55;;;3.47;;
12958;SDS011;6544;51.666;6.634;2023-07-24T13:21:59;4.57;;;3.65;;
12958;SDS011;6544;51.666;6.634;2023-07-24T13:24:27;4.13;;;3.42;;
12958;SDS011;6544;51.666;6.634;2023-07-24T13:26:54;4.13;;;3.72;;
12958;SDS011;6544;51.666;6.634;2023-07-24T13:29:21;4.35;;;3.58;;
12958;SDS011;6544;51.666;6.634;2023-07-24T13:31:49;4.70;;;3.72;;
12958;SDS011;6544;51.666;6.634;2023-07-24T13:34:17;5.32;;;4.03;;
12958;SDS011;6544;51.666;6.634;2023-07-24T13:36:44;4.75;;;3.92;;
12958;SDS011;6544;51.666;6.634;2023-07-24T13:39:11;5.25;;;3.80;;
12958;SDS011;6544;51.666;6.634;2023-07-24T13:41:40;4.43;;;3.30;;
12958;SDS011;6544;51.666;6.634;2023-07-24T13:44:07;5.68;;;3.00;;
12958;SDS011;6544;51.666;6.634;2023-07-24T13:46:34;4.13;;;3.65;;
12958;SDS011;6544;51.666;6.634;2023-07-24T13:49:01;5.38;;;3.58;;
12958;SDS011;6544;51.666;6.634;2023-07-24T13:51:28;6.13;;;4.07;;
12958;SDS011;6544;51.666;6.634;2023-07-24T13:53:55;3.90;;;3.20;;
12958;SDS011;6544;51.666;6.634;2023-07-24T13:56:24;6.10;;;3.05;;
12958;SDS011;6544;51.666;6.634;2023-07-24T13:58:54;3.45;;;2.72;;
12958;SDS011;6544;51.666;6.634;2023-07-24T14:01:21;4.15;;;3.10;;
12958;SDS011;6544;51.666;6.634;2023-07-24T14:03:49;3.97;;;3.30;;
12958;SDS011;6544;51.666;6.634;2023-07-24T14:06:18;3.95;;;3.20;;
12958;SDS011;6544;51.666;6.634;2023-07-24T14:08:45;4.20;;;3.22;;
12958;SDS011;6544;51.666;6.634;2023-07-24T14:11:12;2.97;;;2.70;;
12958;SDS011;6544;51.666;6.634;2023-07-24T14:13:39;2.90;;;2.58;;
12958;SDS011;6544;51.666;6.634;2023-07-24T14:16:08;3.53;;;2.60;;
12958;SDS011;6544;51.666;6.634;2023-07-24T14:18:35;3.72;;;2.85;;
12958;SDS011;6544;51.666;6.634;2023-07-24T14:21:02;4.97;;;2.58;;
12958;SDS011;6544;51.666;6.634;2023-07-24T14:23:29;3.25;;;2.70;;
12958;SDS011;6544;51.666;6.634;2023-07-24T14:25:56;3.38;;;2.55;;
12958;SDS011;6544;51.666;6.634;2023-07-24T14:28:23;4.45;;;2.97;;
12958;SDS011;6544;51.666;6.634;2023-07-24T14:30:50;4.68;;;2.92;;
12958;SDS011;6544;51.666;6.634;2023-07-24T14:33:19;3.15;;;2.85;;
12958;SDS011;6544;51.666;6.634;2023-07-24T14:35:50;4.22;;;2.92;;
12958;SDS011;6544;51.666;6.634;2023-07-24T14:38:17;4.30;;;2.83;;
12958;SDS011;6544;51.666;6.634;2023-07-24T14:40:44;3.70;;;3.03;;
12958;SDS011;6544;51.666;6.634;2023-07-24T14:43:11;3.72;;;2.97;;
12958;SDS011;6544;51.666;6.634;2023-07-24T14:45:38;3.83;;;3.10;;
12958;SDS011;6544;51.666;6.634;2023-07-24T14:48:05;3.75;;;3.10;;
12958;SDS011;6544;51.666;6.634;2023-07-24T14:50:36;4.85;;;3.30;;
12958;SDS011;6544;51.666;6.634;2023-07-24T14:53:03;3.92;;;3.47;;
12958;SDS011;6544;51.666;6.634;2023-07-24T14:55:30;4.45;;;3.65;;
12958;SDS011;6544;51.666;6.634;2023-07-24T14:57:58;4.75;;;3.67;;
12958;SDS011;6544;51.666;6.634;2023-07-24T15:00:25;4.25;;;3.80;;
12958;SDS011;6544;51.666;6.634;2023-07-24T15:02:53;7.22;;;4.32;;